Time,TemperatureF,DewpointF,PressureIn,WindDirection,WindDirectionDegrees,WindSpeedMPH,WindSpeedGustMPH,Humidity,HourlyPrecipIn,Conditions,Clouds,dailyrainin,SolarRadiationWatts/m^2,SoftwareType,DateUTC
2013-07-28 00:02:00,53.0,46.0,-100.00,NNW,340,7.0,14.0,76,0.00,,,0.02,0.000000,,2013-07-28 05:02:00,
2013-07-28 00:32:00,53.0,46.0,-100.00,North,349,5.0,11.0,78,0.00,,,0.02,0.000000,,2013-07-28 05:32:00,
2013-07-28 00:43:00,53.0,46.0,-100.00,North,349,5.0,11.0,78,0.00,,,0.02,0.000000,,2013-07-28 05:43:00,
2013-07-28 00:53:00,53.0,46.0,-100.00,North,349,5.0,11.0,78,0.00,,,0.02,0.000000,,2013-07-28 05:53:00,
2013-07-28 01:02:00,53.0,46.0,-100.00,North,349,5.0,11.0,78,0.00,,,0.02,0.000000,,2013-07-28 06:02:00,
2013-07-28 01:32:00,52.0,45.0,-100.00,North,355,6.0,12.0,77,0.00,,,0.02,0.000000,,2013-07-28 06:32:00,
2013-07-28 01:43:00,52.0,45.0,-100.00,North,355,6.0,12.0,77,0.00,,,0.02,0.000000,,2013-07-28 06:43:00,
2013-07-28 01:53:00,52.0,45.0,-100.00,North,355,6.0,12.0,77,0.00,,,0.02,0.000000,,2013-07-28 06:53:00,
2013-07-28 02:02:00,52.0,45.0,-100.00,North,355,6.0,12.0,77,0.00,,,0.02,0.000000,,2013-07-28 07:02:00,
2013-07-28 02:32:00,52.0,46.0,-100.00,NNW,335,4.0,14.0,80,0.00,,,0.02,0.000000,,2013-07-28 07:32:00,
2013-07-28 02:43:00,52.0,46.0,-100.00,NNW,335,4.0,14.0,80,0.00,,,0.02,0.000000,,2013-07-28 07:43:00,
2013-07-28 02:53:00,52.0,46.0,-100.00,NNW,335,4.0,14.0,80,0.00,,,0.02,0.000000,,2013-07-28 07:53:00,
2013-07-28 03:02:00,52.0,46.0,-100.00,NNW,335,4.0,14.0,80,0.00,,,0.02,0.000000,,2013-07-28 08:02:00,
2013-07-28 03:33:00,52.0,45.0,-100.00,NNW,348,7.0,14.0,78,0.00,,,0.02,0.000000,,2013-07-28 08:33:00,
2013-07-28 03:43:00,52.0,45.0,-100.00,NNW,348,7.0,14.0,78,0.00,,,0.02,0.000000,,2013-07-28 08:43:00,
2013-07-28 03:53:00,52.0,45.0,-100.00,NNW,348,7.0,14.0,78,0.00,,,0.02,0.000000,,2013-07-28 08:53:00,
2013-07-28 04:02:00,52.0,45.0,-100.00,NNW,348,7.0,14.0,78,0.00,,,0.02,0.000000,,2013-07-28 09:02:00,
2013-07-28 04:32:00,52.0,46.0,-100.00,NNW,336,5.0,14.0,80,0.00,,,0.02,0.000000,,2013-07-28 09:32:00,
2013-07-28 04:43:00,52.0,46.0,-100.00,NNW,336,5.0,14.0,80,0.00,,,0.02,0.000000,,2013-07-28 09:43:00,
2013-07-28 04:53:00,52.0,46.0,-100.00,NNW,336,5.0,14.0,80,0.00,,,0.02,0.000000,,2013-07-28 09:53:00,
2013-07-28 05:02:00,52.0,46.0,-100.00,NNW,336,5.0,14.0,80,0.00,,,0.02,0.000000,,2013-07-28 10:02:00,
2013-07-28 05:33:00,51.0,45.0,-100.00,NNW,343,7.0,15.0,79,0.00,,,0.02,0.000000,,2013-07-28 10:33:00,
2013-07-28 05:42:00,51.0,45.0,-100.00,NNW,343,7.0,15.0,79,0.00,,,0.02,0.000000,,2013-07-28 10:42:00,
2013-07-28 05:53:00,51.0,45.0,-100.00,NNW,343,7.0,15.0,79,0.00,,,0.02,0.000000,,2013-07-28 10:53:00,
2013-07-28 06:02:00,51.0,45.0,-100.00,NNW,343,7.0,15.0,79,0.00,,,0.02,0.000000,,2013-07-28 11:02:00,
2013-07-28 06:33:00,51.0,46.0,-100.00,North,352,4.0,12.0,82,0.00,,,0.02,1.000000,,2013-07-28 11:33:00,
2013-07-28 06:43:00,51.0,46.0,-100.00,North,352,4.0,12.0,82,0.00,,,0.02,1.000000,,2013-07-28 11:43:00,
2013-07-28 06:54:00,51.0,46.0,-100.00,North,352,4.0,12.0,82,0.00,,,0.02,1.000000,,2013-07-28 11:54:00,
2013-07-28 07:02:00,51.0,46.0,-100.00,North,352,4.0,12.0,82,0.00,,,0.02,1.000000,,2013-07-28 12:02:00,
2013-07-28 07:33:00,51.0,44.0,-100.00,North,357,5.0,13.0,77,0.00,,,0.02,37.000000,,2013-07-28 12:33:00,
2013-07-28 07:43:00,51.0,44.0,-100.00,North,357,5.0,13.0,77,0.00,,,0.02,37.000000,,2013-07-28 12:43:00,
2013-07-28 07:53:00,51.0,44.0,-100.00,North,357,5.0,13.0,77,0.00,,,0.02,37.000000,,2013-07-28 12:53:00,
2013-07-28 08:02:00,51.0,44.0,-100.00,North,357,5.0,13.0,77,0.00,,,0.02,37.000000,,2013-07-28 13:02:00,
2013-07-28 08:32:00,52.0,45.0,-100.00,NNW,343,8.0,14.0,78,0.00,,,0.02,150.000000,,2013-07-28 13:32:00,
2013-07-28 08:43:00,52.0,45.0,-100.00,NNW,343,8.0,14.0,78,0.00,,,0.02,150.000000,,2013-07-28 13:43:00,
2013-07-28 08:53:00,52.0,45.0,-100.00,NNW,343,8.0,14.0,78,0.00,,,0.02,150.000000,,2013-07-28 13:53:00,
2013-07-28 09:02:00,52.0,45.0,-100.00,NNW,343,8.0,14.0,78,0.00,,,0.02,150.000000,,2013-07-28 14:02:00,
2013-07-28 09:33:00,57.0,48.0,-100.00,NW,318,9.0,14.0,72,0.00,,,0.02,436.000000,,2013-07-28 14:33:00,
2013-07-28 09:43:00,57.0,48.0,-100.00,NW,318,9.0,14.0,72,0.00,,,0.02,436.000000,,2013-07-28 14:43:00,
2013-07-28 09:53:00,57.0,48.0,-100.00,NW,318,9.0,14.0,72,0.00,,,0.02,436.000000,,2013-07-28 14:53:00,
2013-07-28 10:03:00,57.0,48.0,-100.00,NW,318,9.0,14.0,72,0.00,,,0.02,436.000000,,2013-07-28 15:03:00,
2013-07-28 10:33:00,60.0,47.0,-100.00,NW,321,11.0,16.0,61,0.00,,,0.01,611.000000,,2013-07-28 15:33:00,
2013-07-28 10:43:00,60.0,47.0,-100.00,NW,321,11.0,16.0,61,0.00,,,0.01,611.000000,,2013-07-28 15:43:00,
2013-07-28 10:53:00,60.0,47.0,-100.00,NW,321,11.0,16.0,61,0.00,,,0.01,611.000000,,2013-07-28 15:53:00,
2013-07-28 11:02:00,60.0,47.0,-100.00,NW,321,11.0,16.0,61,0.00,,,0.01,611.000000,,2013-07-28 16:02:00,
2013-07-28 11:33:00,63.0,48.0,-100.00,NW,315,11.0,16.0,58,0.00,,,0.01,785.000000,,2013-07-28 16:33:00,
2013-07-28 11:43:00,63.0,48.0,-100.00,NW,315,11.0,16.0,58,0.00,,,0.01,785.000000,,2013-07-28 16:43:00,
2013-07-28 11:52:00,63.0,48.0,-100.00,NW,315,11.0,16.0,58,0.00,,,0.01,785.000000,,2013-07-28 16:52:00,
2013-07-28 12:02:00,63.0,48.0,-100.00,NW,315,11.0,16.0,58,0.00,,,0.01,785.000000,,2013-07-28 17:02:00,
2013-07-28 12:33:00,65.0,50.0,-100.00,NW,318,9.0,16.0,59,0.00,,,0.01,873.000000,,2013-07-28 17:33:00,
2013-07-28 12:43:00,65.0,50.0,-100.00,NW,318,9.0,16.0,59,0.00,,,0.01,873.000000,,2013-07-28 17:43:00,
2013-07-28 12:53:00,65.0,50.0,-100.00,NW,318,9.0,16.0,59,0.00,,,0.01,873.000000,,2013-07-28 17:53:00,
2013-07-28 13:03:00,65.0,50.0,-100.00,NW,318,9.0,16.0,59,0.00,,,0.01,873.000000,,2013-07-28 18:03:00,
2013-07-28 13:33:00,68.0,50.0,-100.00,NNW,344,8.0,16.0,53,0.00,,,0.01,845.000000,,2013-07-28 18:33:00,
2013-07-28 13:43:00,68.0,50.0,-100.00,NNW,344,8.0,16.0,53,0.00,,,0.01,845.000000,,2013-07-28 18:43:00,
2013-07-28 13:52:00,68.0,50.0,-100.00,NNW,344,8.0,16.0,53,0.00,,,0.01,845.000000,,2013-07-28 18:52:00,
2013-07-28 14:02:00,68.0,50.0,-100.00,NNW,344,8.0,16.0,53,0.00,,,0.01,845.000000,,2013-07-28 19:02:00,
2013-07-28 14:33:00,68.0,52.0,-100.00,North,7,7.0,15.0,56,0.00,,,0.01,814.000000,,2013-07-28 19:33:00,
2013-07-28 14:43:00,68.0,52.0,-100.00,North,7,7.0,15.0,56,0.00,,,0.01,814.000000,,2013-07-28 19:43:00,
2013-07-28 14:52:00,68.0,52.0,-100.00,North,7,7.0,15.0,56,0.00,,,0.01,814.000000,,2013-07-28 19:52:00,
2013-07-28 15:02:00,68.0,52.0,-100.00,North,7,7.0,15.0,56,0.00,,,0.01,814.000000,,2013-07-28 20:02:00,
2013-07-28 15:33:00,68.0,51.0,-100.00,NNE,26,8.0,15.0,54,0.00,,,0.01,777.000000,,2013-07-28 20:33:00,
2013-07-28 15:43:00,68.0,51.0,-100.00,NNE,26,8.0,15.0,54,0.00,,,0.01,777.000000,,2013-07-28 20:43:00,
2013-07-28 15:53:00,68.0,51.0,-100.00,NNE,26,8.0,15.0,54,0.00,,,0.01,777.000000,,2013-07-28 20:53:00,
2013-07-28 16:03:00,68.0,51.0,-100.00,NNE,26,8.0,15.0,54,0.00,,,0.01,777.000000,,2013-07-28 21:03:00,
2013-07-28 16:33:00,69.0,51.0,-100.00,NNW,340,10.0,17.0,53,0.00,,,0.01,778.000000,,2013-07-28 21:33:00,
2013-07-28 16:44:00,69.0,51.0,-100.00,NNW,340,10.0,17.0,53,0.00,,,0.01,778.000000,,2013-07-28 21:44:00,
2013-07-28 16:52:00,69.0,51.0,-100.00,NNW,340,10.0,17.0,53,0.00,,,0.01,778.000000,,2013-07-28 21:52:00,
2013-07-28 17:02:00,69.0,51.0,-100.00,NNW,340,10.0,17.0,53,0.00,,,0.01,778.000000,,2013-07-28 22:02:00,
2013-07-28 17:32:00,69.0,51.0,-100.00,North,2,6.0,17.0,53,0.00,,,0.00,579.000000,,2013-07-28 22:32:00,
2013-07-28 17:43:00,69.0,51.0,-100.00,North,2,6.0,17.0,53,0.00,,,0.00,579.000000,,2013-07-28 22:43:00,
2013-07-28 17:52:00,69.0,51.0,-100.00,North,2,6.0,17.0,53,0.00,,,0.00,579.000000,,2013-07-28 22:52:00,
2013-07-28 18:03:00,69.0,51.0,-100.00,North,2,6.0,17.0,53,0.00,,,0.00,579.000000,,2013-07-28 23:03:00,
2013-07-28 18:33:00,71.0,52.0,-100.00,North,3,5.0,12.0,52,0.00,,,0.00,381.000000,,2013-07-28 23:33:00,
2013-07-28 18:43:00,71.0,52.0,-100.00,North,3,5.0,12.0,52,0.00,,,0.00,381.000000,,2013-07-28 23:43:00,
2013-07-28 18:53:00,71.0,52.0,-100.00,North,3,5.0,12.0,52,0.00,,,0.00,381.000000,,2013-07-28 23:53:00,
2013-07-28 19:03:00,71.0,52.0,-100.00,North,3,5.0,12.0,52,0.00,,,0.00,381.000000,,2013-07-29 00:03:00,
2013-07-28 19:32:00,68.0,54.0,-100.00,North,10,2.0,11.0,61,0.00,,,0.00,201.000000,,2013-07-29 00:32:00,
2013-07-28 19:43:00,68.0,54.0,-100.00,North,10,2.0,11.0,61,0.00,,,0.00,201.000000,,2013-07-29 00:43:00,
2013-07-28 19:52:00,68.0,54.0,-100.00,North,10,2.0,11.0,61,0.00,,,0.00,201.000000,,2013-07-29 00:52:00,
2013-07-28 20:02:00,68.0,54.0,-100.00,North,10,2.0,11.0,61,0.00,,,0.00,201.000000,,2013-07-29 01:02:00,
2013-07-28 20:38:00,66.0,57.0,-100.00,NE,39,0.0,5.0,74,0.00,,,0.00,56.000000,,2013-07-29 01:38:00,
2013-07-28 20:47:00,66.0,57.0,-100.00,NE,39,0.0,5.0,74,0.00,,,0.00,56.000000,,2013-07-29 01:47:00,
2013-07-28 21:05:00,66.0,57.0,-100.00,NE,39,0.0,5.0,74,0.00,,,0.00,56.000000,,2013-07-29 02:05:00,
2013-07-28 21:39:00,62.0,57.0,-100.00,SSE,149,0.0,4.0,85,0.00,,,0.00,15.000000,,2013-07-29 02:39:00,
2013-07-28 21:49:00,62.0,57.0,-100.00,SSE,149,0.0,4.0,85,0.00,,,0.00,15.000000,,2013-07-29 02:49:00,
2013-07-28 21:58:00,62.0,57.0,-100.00,SSE,149,0.0,4.0,85,0.00,,,0.00,15.000000,,2013-07-29 02:58:00,
2013-07-28 22:03:00,62.0,57.0,-100.00,SSE,149,0.0,4.0,85,0.00,,,0.00,15.000000,,2013-07-29 03:03:00,
2013-07-28 22:37:00,58.0,55.0,-100.00,East,84,3.0,4.0,91,0.00,,,0.00,0.000000,,2013-07-29 03:37:00,
2013-07-28 22:50:00,58.0,55.0,-100.00,East,84,3.0,4.0,91,0.00,,,0.00,0.000000,,2013-07-29 03:50:00,
2013-07-28 22:58:00,58.0,55.0,-100.00,East,84,3.0,4.0,91,0.00,,,0.00,0.000000,,2013-07-29 03:58:00,
2013-07-28 23:02:00,58.0,55.0,-100.00,East,84,3.0,4.0,91,0.00,,,0.00,0.000000,,2013-07-29 04:02:00,
2013-07-28 23:33:00,56.0,55.0,-100.00,NW,324,2.0,4.0,95,0.00,,,0.00,0.000000,,2013-07-29 04:33:00,
2013-07-28 23:43:00,56.0,55.0,-100.00,NW,324,2.0,4.0,95,0.00,,,0.00,0.000000,,2013-07-29 04:43:00,
2013-07-28 23:53:00,56.0,55.0,-100.00,NW,324,2.0,4.0,95,0.00,,,0.00,0.000000,,2013-07-29 04:53:00,